Time;durP1;ratioP1;P1;durP2;ratioP2;P2;SDS_P1;SDS_P2;PMS_P1;PMS_P2;Temp;Humidity;BMP_temperature;BMP_pressure;BME280_temperature;BME280_humidity;BME280_pressure;Samples;Min_cycle;Max_cycle;Signal;HPM_P1;HPM_P2
2021/04/28 00:00:32;;;;;;;;;;;9.10;65.00;;;;;;5009747;28;19914;-74
2021/04/28 00:02:59;;;;;;;;;;;9.10;65.00;;;;;;5009646;28;19921;-75
2021/04/28 00:05:25;;;;;;;;;;;9.10;65.40;;;;;;5007696;28;20307;-75
2021/04/28 00:07:51;;;;;;;;;;;9.10;65.40;;;;;;5008526;28;19975;-75
2021/04/28 00:10:18;;;;;;;;;;;9.20;65.50;;;;;;5010407;28;20219;-75
2021/04/28 00:12:44;;;;;;;;;;;9.10;65.60;;;;;;4991880;28;19922;-75
2021/04/28 00:15:12;;;;;;;;;;;9.10;65.60;;;;;;4990880;28;19914;-75
2021/04/28 00:17:38;;;;;;;;;;;9.10;65.90;;;;;;5008616;28;19936;-74
2021/04/28 00:20:05;;;;;;;;;;;9.00;66.20;;;;;;5009211;28;20311;-75
2021/04/28 00:22:31;;;;;;;;;;;9.00;66.50;;;;;;4987812;28;19921;-75
2021/04/28 00:24:56;;;;;;;;;;;8.90;66.80;;;;;;5008198;28;19913;-75
2021/04/28 00:27:22;;;;;;;;;;;8.70;67.70;;;;;;5007284;28;19928;-75
2021/04/28 00:29:47;;;;;;;;;;;8.50;68.60;;;;;;5009011;28;20226;-74
2021/04/28 00:32:13;;;;;;;;;;;8.60;69.00;;;;;;5010147;28;19921;-75
2021/04/28 00:34:39;;;;;;;;;;;8.70;69.00;;;;;;5005741;28;19922;-74
2021/04/28 00:37:05;;;;;;;;;;;8.60;69.30;;;;;;5007975;28;19953;-74
2021/04/28 00:39:30;;;;;;;;;;;8.50;70.20;;;;;;5013446;28;19918;-75
2021/04/28 00:41:57;;;;;;;;;;;8.50;70.40;;;;;;5015459;28;19914;-75
2021/04/28 00:44:22;;;;;;;;;;;8.50;70.70;;;;;;5015252;28;20243;-75
2021/04/28 00:46:48;;;;;;;;;;;8.70;70.40;;;;;;5010938;28;19964;-74
2021/04/28 00:49:13;;;;;;;;;;;8.70;70.80;;;;;;5013032;28;20004;-75
2021/04/28 00:51:39;;;;;;;;;;;8.70;70.60;;;;;;5008267;28;19922;-74
2021/04/28 00:54:05;;;;;;;;;;;8.80;70.90;;;;;;4996622;28;19929;-75
2021/04/28 00:56:31;;;;;;;;;;;8.70;70.70;;;;;;5028285;28;19920;-76
2021/04/28 00:58:57;;;;;;;;;;;8.80;71.10;;;;;;5026100;28;20562;-75
2021/04/28 01:01:22;;;;;;;;;;;8.80;71.00;;;;;;5025318;28;19975;-75
2021/04/28 01:03:48;;;;;;;;;;;8.70;71.30;;;;;;5027146;28;19921;-74
2021/04/28 01:06:14;;;;;;;;;;;8.70;71.30;;;;;;5026755;28;19921;-74
2021/04/28 01:08:40;;;;;;;;;;;8.70;71.70;;;;;;5025253;28;20210;-75
2021/04/28 01:11:05;;;;;;;;;;;8.70;72.00;;;;;;5019959;28;20364;-74
2021/04/28 01:13:31;;;;;;;;;;;8.60;72.50;;;;;;5024927;28;19913;-74
2021/04/28 01:15:57;;;;;;;;;;;8.50;72.70;;;;;;5011020;28;19917;-75
2021/04/28 01:18:22;;;;;;;;;;;8.50;73.00;;;;;;5026859;28;20219;-76
2021/04/28 01:20:48;;;;;;;;;;;8.50;73.30;;;;;;5026566;28;20048;-76
2021/04/28 01:23:15;;;;;;;;;;;8.60;73.30;;;;;;5026798;28;20273;-76
2021/04/28 01:25:41;;;;;;;;;;;8.60;73.60;;;;;;5027716;28;19975;-76
2021/04/28 01:28:12;;;;;;;;;;;8.40;74.10;;;;;;5027864;28;20298;-76
2021/04/28 01:30:40;;;;;;;;;;;8.30;74.80;;;;;;4992513;28;19920;-76
2021/04/28 01:33:07;;;;;;;;;;;8.20;75.40;;;;;;5025514;28;20016;-75
2021/04/28 01:35:34;;;;;;;;;;;8.20;76.20;;;;;;5026266;28;19917;-76
2021/04/28 01:38:00;;;;;;;;;;;8.30;76.40;;;;;;5024625;28;19921;-76
2021/04/28 01:40:25;;;;;;;;;;;8.30;76.30;;;;;;5020813;28;19922;-76
2021/04/28 01:42:52;;;;;;;;;;;8.50;76.00;;;;;;5010061;28;20377;-76
2021/04/28 01:45:18;;;;;;;;;;;8.50;75.50;;;;;;5011794;28;19921;-76
2021/04/28 01:47:44;;;;;;;;;;;8.30;74.50;;;;;;5024583;28;20020;-76
2021/04/28 01:50:11;;;;;;;;;;;8.10;76.80;;;;;;5027108;28;20374;-76
2021/04/28 01:52:37;;;;;;;;;;;8.20;77.70;;;;;;5011034;28;20245;-77
2021/04/28 01:55:03;;;;;;;;;;;8.30;77.60;;;;;;5012721;28;19921;-76
2021/04/28 01:57:29;;;;;;;;;;;8.50;76.90;;;;;;5025212;28;19921;-76
2021/04/28 01:59:54;;;;;;;;;;;8.70;76.30;;;;;;5026408;28;19929;-76
2021/04/28 02:02:20;;;;;;;;;;;8.80;76.00;;;;;;5027876;28;19921;-76
2021/04/28 02:04:46;;;;;;;;;;;8.70;76.10;;;;;;5027001;28;19913;-76
2021/04/28 02:07:13;;;;;;;;;;;8.70;76.20;;;;;;5008579;28;20298;-75
2021/04/28 02:09:41;;;;;;;;;;;8.80;76.00;;;;;;5027779;28;19984;-75
2021/04/28 02:12:09;;;;;;;;;;;8.80;76.10;;;;;;5027859;28;20289;-76
2021/04/28 02:14:35;;;;;;;;;;;8.60;76.60;;;;;;5024985;28;19921;-76
2021/04/28 02:17:01;;;;;;;;;;;8.60;77.00;;;;;;5024690;28;19967;-76
2021/04/28 02:19:27;;;;;;;;;;;8.50;77.30;;;;;;5018190;28;19964;-74
2021/04/28 02:21:53;;;;;;;;;;;8.60;77.30;;;;;;5026006;28;20325;-76
2021/04/28 02:24:19;;;;;;;;;;;8.60;77.60;;;;;;5025504;28;20347;-76
2021/04/28 02:26:45;;;;;;;;;;;8.60;77.50;;;;;;5011460;28;19921;-75
2021/04/28 02:29:11;;;;;;;;;;;8.60;77.30;;;;;;5029079;28;19917;-75
2021/04/28 02:31:37;;;;;;;;;;;8.60;77.50;;;;;;5030855;28;19913;-76
2021/04/28 02:34:06;;;;;;;;;;;8.60;77.50;;;;;;5031017;28;19913;-76
2021/04/28 02:36:37;;;;;;;;;;;8.60;78.00;;;;;;5013185;28;19925;-75
2021/04/28 02:39:06;;;;;;;;;;;8.60;77.80;;;;;;5014466;28;19975;-76
2021/04/28 02:41:32;;;;;;;;;;;8.60;78.00;;;;;;5030844;28;20550;-75
2021/04/28 02:43:59;;;;;;;;;;;8.60;78.20;;;;;;5028497;28;19925;-76
2021/04/28 02:46:27;;;;;;;;;;;8.50;78.50;;;;;;5012047;28;19921;-76
2021/04/28 02:48:53;;;;;;;;;;;8.30;79.10;;;;;;5021148;28;20314;-75
2021/04/28 02:51:19;;;;;;;;;;;8.20;79.90;;;;;;5028550;28;19921;-75
2021/04/28 02:53:45;;;;;;;;;;;8.10;80.10;;;;;;5018117;28;19924;-76
2021/04/28 02:56:11;;;;;;;;;;;7.90;80.50;;;;;;5013229;28;19921;-76
2021/04/28 02:58:38;;;;;;;;;;;7.80;80.60;;;;;;5002802;28;20020;-75
2021/04/28 03:01:04;;;;;;;;;;;7.60;80.10;;;;;;4987707;28;19917;-75
2021/04/28 03:03:30;;;;;;;;;;;7.50;80.40;;;;;;5004128;28;19930;-75
2021/04/28 03:05:55;;;;;;;;;;;7.30;81.00;;;;;;4982073;28;20258;-75
2021/04/28 03:08:21;;;;;;;;;;;7.10;81.80;;;;;;4998908;28;19987;-75
2021/04/28 03:10:51;;;;;;;;;;;7.00;82.20;;;;;;5000481;28;19920;-75
2021/04/28 03:13:16;;;;;;;;;;;6.80;83.30;;;;;;4998615;28;20854;-76
2021/04/28 03:15:43;;;;;;;;;;;6.70;83.50;;;;;;4981421;28;19921;-76
2021/04/28 03:18:09;;;;;;;;;;;6.50;84.10;;;;;;4998943;28;20230;-76
2021/04/28 03:20:35;;;;;;;;;;;6.40;85.00;;;;;;4996900;28;19964;-76
2021/04/28 03:23:01;;;;;;;;;;;6.20;85.70;;;;;;5000262;28;19957;-76
2021/04/28 03:25:27;;;;;;;;;;;6.10;86.40;;;;;;5001753;28;20012;-77
2021/04/28 03:27:53;;;;;;;;;;;6.00;87.00;;;;;;4984274;28;20048;-76
2021/04/28 03:30:18;;;;;;;;;;;5.90;87.50;;;;;;4995683;28;20311;-76
2021/04/28 03:32:44;;;;;;;;;;;5.80;87.40;;;;;;4982885;28;19921;-76
2021/04/28 03:35:10;;;;;;;;;;;5.70;88.00;;;;;;5000167;28;19922;-75
2021/04/28 03:37:37;;;;;;;;;;;5.60;88.90;;;;;;4999612;28;19932;-76
2021/04/28 03:40:03;;;;;;;;;;;5.50;89.60;;;;;;5000106;28;19936;-76
2021/04/28 03:42:29;;;;;;;;;;;5.30;89.80;;;;;;4999616;28;20715;-75
2021/04/28 03:44:56;;;;;;;;;;;5.20;90.20;;;;;;5000799;28;19961;-76
2021/04/28 03:47:21;;;;;;;;;;;5.10;90.60;;;;;;4984243;28;20015;-76
2021/04/28 03:49:50;;;;;;;;;;;5.10;90.80;;;;;;4979549;28;19958;-75
2021/04/28 03:52:16;;;;;;;;;;;5.10;91.10;;;;;;5000029;28;19961;-75
2021/04/28 03:54:42;;;;;;;;;;;5.00;90.80;;;;;;5012570;28;19960;-76
2021/04/28 03:57:07;;;;;;;;;;;4.90;90.80;;;;;;5017412;28;19920;-76
2021/04/28 03:59:33;;;;;;;;;;;4.80;91.20;;;;;;5023699;28;20067;-76
2021/04/28 04:01:59;;;;;;;;;;;4.70;91.60;;;;;;5023583;28;20301;-76
2021/04/28 04:04:24;;;;;;;;;;;4.80;91.80;;;;;;5017113;28;20305;-77
2021/04/28 04:06:50;;;;;;;;;;;4.80;91.90;;;;;;5017197;28;19932;-76
2021/04/28 04:09:15;;;;;;;;;;;4.80;91.80;;;;;;5019363;28;19920;-76
2021/04/28 04:11:41;;;;;;;;;;;4.80;91.70;;;;;;5016625;28;20012;-76
2021/04/28 04:14:06;;;;;;;;;;;4.90;91.90;;;;;;5017333;28;19963;-77
2021/04/28 04:16:32;;;;;;;;;;;4.70;91.40;;;;;;5019348;28;19921;-76
2021/04/28 04:18:57;;;;;;;;;;;4.60;91.90;;;;;;5017679;28;20359;-76
2021/04/28 04:21:23;;;;;;;;;;;4.40;91.60;;;;;;5017887;28;19927;-75
2021/04/28 04:23:48;;;;;;;;;;;4.30;92.10;;;;;;5018873;28;19920;-75
2021/04/28 04:26:15;;;;;;;;;;;4.20;92.60;;;;;;5022705;28;19922;-77
2021/04/28 04:28:41;;;;;;;;;;;4.30;93.00;;;;;;5016745;28;19929;-77
2021/04/28 04:31:06;;;;;;;;;;;4.40;93.10;;;;;;5023646;28;19913;-76
2021/04/28 04:33:32;;;;;;;;;;;4.40;93.20;;;;;;5023182;28;20008;-77
2021/04/28 04:35:57;;;;;;;;;;;4.60;93.50;;;;;;5024330;28;20242;-76
2021/04/28 04:38:23;;;;;;;;;;;4.60;93.80;;;;;;5018348;28;19917;-76
2021/04/28 04:40:48;;;;;;;;;;;4.70;93.70;;;;;;5018716;28;19917;-76
2021/04/28 04:43:14;;;;;;;;;;;4.80;93.60;;;;;;5022059;28;20302;-75
2021/04/28 04:45:39;;;;;;;;;;;4.90;93.30;;;;;;5018665;28;19921;-76
2021/04/28 04:48:06;;;;;;;;;;;4.90;93.30;;;;;;5015148;28;19925;-77
2021/04/28 04:50:32;;;;;;;;;;;5.00;93.30;;;;;;5020703;28;20252;-75
2021/04/28 04:52:58;;;;;;;;;;;5.00;93.40;;;;;;5018079;28;19922;-74
2021/04/28 04:55:24;;;;;;;;;;;5.00;93.20;;;;;;5021820;28;19964;-74
2021/04/28 04:57:50;;;;;;;;;;;5.00;93.30;;;;;;5019201;28;19913;-74
2021/04/28 05:00:15;;;;;;;;;;;5.20;93.30;;;;;;5019282;28;20008;-75
2021/04/28 05:02:41;;;;;;;;;;;5.30;93.10;;;;;;5021741;28;20277;-75
2021/04/28 05:05:07;;;;;;;;;;;5.40;93.20;;;;;;5013784;28;19917;-76
2021/04/28 05:07:33;;;;;;;;;;;5.40;92.80;;;;;;5017833;28;20273;-76
2021/04/28 05:09:58;;;;;;;;;;;5.30;91.60;;;;;;5027183;28;19917;-76
2021/04/28 05:12:24;;;;;;;;;;;5.30;92.00;;;;;;5017837;28;20011;-76
2021/04/28 05:14:49;;;;;;;;;;;5.20;91.90;;;;;;5019311;28;19917;-76
2021/04/28 05:17:15;;;;;;;;;;;5.10;91.90;;;;;;5024947;28;19920;-77
2021/04/28 05:19:41;;;;;;;;;;;5.10;92.10;;;;;;5023818;28;19921;-76
2021/04/28 05:22:06;;;;;;;;;;;5.30;92.30;;;;;;5022234;28;19920;-75
2021/04/28 05:24:32;;;;;;;;;;;5.30;92.00;;;;;;5033420;28;19952;-75
2021/04/28 05:26:57;;;;;;;;;;;5.30;92.00;;;;;;5034426;28;19967;-76
2021/04/28 05:29:23;;;;;;;;;;;5.50;92.20;;;;;;5028171;28;19960;-75
2021/04/28 05:31:48;;;;;;;;;;;5.70;92.20;;;;;;5030177;28;19945;-76
2021/04/28 05:34:14;;;;;;;;;;;5.90;92.20;;;;;;5039065;28;19924;-76
2021/04/28 05:36:39;;;;;;;;;;;6.10;92.30;;;;;;5023585;28;19922;-75
2021/04/28 05:39:05;;;;;;;;;;;6.30;91.90;;;;;;5024878;28;19913;-75
2021/04/28 05:41:30;;;;;;;;;;;6.50;92.10;;;;;;5032442;28;20313;-76
2021/04/28 05:43:56;;;;;;;;;;;6.80;91.40;;;;;;5017984;28;20230;-77
2021/04/28 05:46:23;;;;;;;;;;;6.90;90.50;;;;;;5017738;28;19955;-76
2021/04/28 05:48:48;;;;;;;;;;;7.00;89.60;;;;;;5038907;28;19947;-75
2021/04/28 05:51:14;;;;;;;;;;;7.20;89.50;;;;;;5032071;28;19913;-76
2021/04/28 05:53:40;;;;;;;;;;;7.30;89.10;;;;;;5014836;28;20360;-75
2021/04/28 05:56:06;;;;;;;;;;;7.50;88.30;;;;;;5015832;28;20497;-76
2021/04/28 05:58:32;;;;;;;;;;;7.70;87.70;;;;;;5017894;28;19987;-76
2021/04/28 06:00:58;;;;;;;;;;;7.90;86.40;;;;;;5014832;28;19945;-76
2021/04/28 06:03:24;;;;;;;;;;;8.10;86.10;;;;;;5021323;28;20005;-76
2021/04/28 06:05:49;;;;;;;;;;;8.30;85.30;;;;;;5022051;28;19920;-76
2021/04/28 06:08:18;;;;;;;;;;;8.50;84.90;;;;;;5016724;28;20314;-76
2021/04/28 06:10:43;;;;;;;;;;;8.60;84.20;;;;;;5027014;28;19999;-77
2021/04/28 06:13:12;;;;;;;;;;;8.70;83.60;;;;;;5021872;28;20000;-77
2021/04/28 06:15:37;;;;;;;;;;;9.00;82.90;;;;;;5021411;28;19921;-75
2021/04/28 06:18:05;;;;;;;;;;;9.20;82.30;;;;;;5024432;28;19940;-76
2021/04/28 06:20:31;;;;;;;;;;;9.40;81.30;;;;;;5026468;28;19983;-76
2021/04/28 06:22:57;;;;;;;;;;;9.50;81.10;;;;;;5016214;28;19924;-77
2021/04/28 06:25:22;;;;;;;;;;;9.70;80.60;;;;;;5025297;28;19959;-77
2021/04/28 06:27:48;;;;;;;;;;;9.80;80.30;;;;;;5024046;28;19926;-77
2021/04/28 06:30:14;;;;;;;;;;;10.00;79.70;;;;;;5020676;28;20019;-76
2021/04/28 06:32:39;;;;;;;;;;;10.10;79.30;;;;;;5022641;28;19972;-77
2021/04/28 06:35:05;;;;;;;;;;;10.20;79.20;;;;;;5024719;28;19913;-76
2021/04/28 06:37:31;;;;;;;;;;;10.40;78.50;;;;;;5016416;28;20292;-77
2021/04/28 06:39:57;;;;;;;;;;;10.60;77.80;;;;;;5022860;28;20008;-76
2021/04/28 06:42:22;;;;;;;;;;;10.80;77.40;;;;;;5019991;28;19926;-76
2021/04/28 06:44:48;;;;;;;;;;;10.90;75.80;;;;;;5018833;28;19927;-77
2021/04/28 06:47:14;;;;;;;;;;;11.10;76.40;;;;;;5019117;28;19921;-76
2021/04/28 06:49:41;;;;;;;;;;;11.20;75.80;;;;;;5042741;28;19921;-77
2021/04/28 06:52:06;;;;;;;;;;;11.30;75.60;;;;;;5018586;28;19921;-77
2021/04/28 06:54:32;;;;;;;;;;;11.40;76.10;;;;;;5019299;28;19972;-77
2021/04/28 06:56:57;;;;;;;;;;;11.70;75.70;;;;;;5020516;28;20004;-77
2021/04/28 06:59:23;;;;;;;;;;;11.70;75.20;;;;;;5025048;28;20480;-77
2021/04/28 07:01:51;;;;;;;;;;;11.90;74.20;;;;;;5022411;28;19998;-77
2021/04/28 07:04:18;;;;;;;;;;;12.10;73.80;;;;;;5019126;28;20026;-77
2021/04/28 07:06:43;;;;;;;;;;;12.20;73.30;;;;;;5019918;28;19913;-77
2021/04/28 07:09:09;;;;;;;;;;;12.20;73.00;;;;;;5017813;28;19944;-78
2021/04/28 07:11:34;;;;;;;;;;;12.40;73.30;;;;;;5019132;28;19933;-77
2021/04/28 07:14:00;;;;;;;;;;;12.60;72.80;;;;;;5022367;28;19932;-77
2021/04/28 07:16:25;;;;;;;;;;;12.60;72.90;;;;;;5025409;28;19913;-77
2021/04/28 07:18:51;;;;;;;;;;;12.80;72.30;;;;;;5016562;28;19928;-78
2021/04/28 07:21:17;;;;;;;;;;;12.90;71.80;;;;;;5017305;28;20022;-76
2021/04/28 07:23:43;;;;;;;;;;;12.90;72.10;;;;;;5022947;28;19980;-78
2021/04/28 07:26:09;;;;;;;;;;;12.90;71.00;;;;;;5022331;28;20398;-78
2021/04/28 07:28:35;;;;;;;;;;;13.10;71.30;;;;;;5025170;28;19917;-77
2021/04/28 07:31:01;;;;;;;;;;;13.20;70.30;;;;;;5024315;28;19975;-77
2021/04/28 07:33:26;;;;;;;;;;;13.30;70.60;;;;;;5022814;28;19917;-77
2021/04/28 07:35:52;;;;;;;;;;;13.40;70.60;;;;;;5022278;28;20226;-77
2021/04/28 07:38:17;;;;;;;;;;;13.40;71.10;;;;;;5014961;28;19925;-77
2021/04/28 07:40:43;;;;;;;;;;;13.40;70.70;;;;;;5021761;28;19920;-77
2021/04/28 07:43:09;;;;;;;;;;;13.70;70.70;;;;;;5024832;28;19920;-77
2021/04/28 07:45:35;;;;;;;;;;;14.30;70.50;;;;;;5022515;28;19971;-78
2021/04/28 07:48:07;;;;;;;;;;;15.60;67.80;;;;;;5021558;28;20270;-76
2021/04/28 07:50:33;;;;;;;;;;;16.80;64.00;;;;;;5020551;28;19921;-76
2021/04/28 07:52:58;;;;;;;;;;;17.60;62.30;;;;;;5021043;28;19913;-76
2021/04/28 07:55:24;;;;;;;;;;;18.70;60.10;;;;;;5003764;28;19929;-74
2021/04/28 07:57:49;;;;;;;;;;;19.60;58.40;;;;;;5004724;28;20029;-77
2021/04/28 08:00:18;;;;;;;;;;;20.20;56.60;;;;;;5006309;28;19927;-74
2021/04/28 08:02:44;;;;;;;;;;;20.10;56.70;;;;;;4988435;28;20245;-77
2021/04/28 08:05:10;;;;;;;;;;;20.20;56.30;;;;;;5000582;28;19925;-76
2021/04/28 08:07:36;;;;;;;;;;;20.80;55.70;;;;;;5004640;28;19944;-77
2021/04/28 08:10:03;;;;;;;;;;;21.30;53.80;;;;;;5008955;28;19921;-76
2021/04/28 08:12:28;;;;;;;;;;;21.40;53.70;;;;;;5008156;28;19926;-77
2021/04/28 08:14:54;;;;;;;;;;;21.70;53.20;;;;;;5011020;28;20272;-78
2021/04/28 08:17:19;;;;;;;;;;;22.20;53.10;;;;;;5015568;28;20055;-76
2021/04/28 08:19:45;;;;;;;;;;;21.90;52.70;;;;;;5016055;28;20422;-76
2021/04/28 08:22:10;;;;;;;;;;;21.90;52.30;;;;;;5014190;28;20226;-75
2021/04/28 08:24:36;;;;;;;;;;;22.10;51.70;;;;;;5026141;28;19917;-74
2021/04/28 08:27:02;;;;;;;;;;;21.70;52.60;;;;;;5026114;28;19960;-74
2021/04/28 08:29:27;;;;;;;;;;;21.30;52.20;;;;;;5012049;28;19914;-74
2021/04/28 08:31:53;;;;;;;;;;;20.30;52.20;;;;;;5007509;28;19917;-74
2021/04/28 08:34:22;;;;;;;;;;;20.30;51.80;;;;;;5017309;28;19910;-75
2021/04/28 08:36:48;;;;;;;;;;;20.70;52.40;;;;;;5015221;28;20016;-74
2021/04/28 08:39:13;;;;;;;;;;;21.20;51.30;;;;;;5016488;28;20004;-74
2021/04/28 08:41:39;;;;;;;;;;;21.50;50.70;;;;;;5025518;28;19949;-74
2021/04/28 08:44:05;;;;;;;;;;;22.00;50.30;;;;;;5023419;28;19928;-74
2021/04/28 08:46:31;;;;;;;;;;;21.60;49.30;;;;;;4995670;28;19996;-75
2021/04/28 08:48:57;;;;;;;;;;;20.60;50.60;;;;;;4997585;28;20001;-75
2021/04/28 08:51:22;;;;;;;;;;;19.10;52.50;;;;;;5015772;28;20370;-74
2021/04/28 08:53:50;;;;;;;;;;;18.20;54.00;;;;;;5019941;28;20306;-74
2021/04/28 08:56:16;;;;;;;;;;;17.50;55.50;;;;;;5030206;28;19913;-74
2021/04/28 08:58:41;;;;;;;;;;;17.00;57.10;;;;;;5029589;28;19983;-74
2021/04/28 09:01:07;;;;;;;;;;;16.90;56.60;;;;;;5032831;28;19991;-74
2021/04/28 09:03:51;;;;;;;;;;;17.40;55.90;;;;;;5009178;28;19948;-76
2021/04/28 09:06:23;;;;;;;;;;;18.20;51.10;;;;;;5033382;28;19921;-75
2021/04/28 09:08:50;;;;;;;;;;;18.40;51.50;;;;;;5035251;28;19917;-74
2021/04/28 09:11:33;;;;;;;;;;;18.40;51.20;;;;;;5036826;28;20210;-75
2021/04/28 09:14:09;;;;;;;;;;;19.10;50.10;;;;;;5035882;28;19909;-75
2021/04/28 09:16:35;;;;;;;;;;;20.80;47.20;;;;;;5016862;28;20222;-75
2021/04/28 09:19:01;;;;;;;;;;;21.30;46.70;;;;;;5032903;28;20310;-75
2021/04/28 09:21:55;;;;;;;;;;;22.90;46.70;;;;;;5032363;28;19963;-74
2021/04/28 09:24:22;;;;;;;;;;;24.40;43.10;;;;;;5031559;28;19952;-76
2021/04/28 09:26:47;;;;;;;;;;;22.30;40.60;;;;;;5033467;28;20195;-76
2021/04/28 09:29:17;;;;;;;;;;;21.20;43.30;;;;;;5033564;28;19909;-76
2021/04/28 09:32:03;;;;;;;;;;;20.60;43.70;;;;;;5016586;28;19948;-77
2021/04/28 09:34:33;;;;;;;;;;;21.10;43.60;;;;;;5033016;28;20373;-76
2021/04/28 09:37:01;;;;;;;;;;;22.20;39.60;;;;;;5030071;28;19920;-76
2021/04/28 09:39:26;;;;;;;;;;;22.90;39.50;;;;;;5049451;28;19967;-77
2021/04/28 09:41:57;;;;;;;;;;;22.20;38.40;;;;;;5027202;28;20214;-76
2021/04/28 09:44:28;;;;;;;;;;;21.10;41.00;;;;;;5025920;28;19967;-75
2021/04/28 09:46:57;;;;;;;;;;;20.30;40.70;;;;;;5027444;28;19987;-76
2021/04/28 09:49:23;;;;;;;;;;;20.70;40.80;;;;;;5015211;28;19913;-76
2021/04/28 09:51:53;;;;;;;;;;;20.70;40.90;;;;;;5028914;28;19913;-76
2021/04/28 09:54:19;;;;;;;;;;;19.80;40.10;;;;;;5027407;28;20238;-76
2021/04/28 09:56:44;;;;;;;;;;;19.10;41.30;;;;;;5033486;28;19932;-76
2021/04/28 09:59:10;;;;;;;;;;;19.10;44.30;;;;;;5032405;28;19971;-76
2021/04/28 10:01:37;;;;;;;;;;;19.90;43.00;;;;;;5031038;28;19913;-76
2021/04/28 10:04:04;;;;;;;;;;;20.60;41.80;;;;;;5008725;28;20013;-76
2021/04/28 10:06:59;;;;;;;;;;;21.10;41.80;;;;;;5034257;28;19913;-75
2021/04/28 10:09:33;;;;;;;;;;;21.80;41.10;;;;;;5015949;28;19961;-76
2021/04/28 10:12:00;;;;;;;;;;;23.30;39.30;;;;;;5026635;28;20011;-77
2021/04/28 10:14:29;;;;;;;;;;;24.30;39.00;;;;;;5007331;28;21250;-78
2021/04/28 10:16:57;;;;;;;;;;;23.70;38.30;;;;;;5031492;28;20000;-77
2021/04/28 10:19:23;;;;;;;;;;;23.40;41.10;;;;;;5025986;28;20462;-76
2021/04/28 10:21:49;;;;;;;;;;;24.30;39.80;;;;;;5030295;28;19971;-76
2021/04/28 10:24:15;;;;;;;;;;;24.70;39.00;;;;;;5034610;28;19917;-76
2021/04/28 10:26:41;;;;;;;;;;;25.00;38.90;;;;;;5033370;28;19920;-77
2021/04/28 10:29:08;;;;;;;;;;;26.10;37.60;;;;;;5034410;28;20225;-78
2021/04/28 10:31:39;;;;;;;;;;;27.20;38.30;;;;;;5017012;28;20000;-76
2021/04/28 10:34:05;;;;;;;;;;;27.90;36.00;;;;;;5032947;28;19913;-77
2021/04/28 10:36:31;;;;;;;;;;;27.30;35.20;;;;;;5031055;28;19920;-76
2021/04/28 10:38:59;;;;;;;;;;;26.50;35.60;;;;;;5032932;28;20008;-76
2021/04/28 10:41:35;;;;;;;;;;;25.70;37.00;;;;;;5005993;28;19921;-77
2021/04/28 10:44:07;;;;;;;;;;;23.80;41.40;;;;;;5030009;28;19960;-76
2021/04/28 10:46:34;;;;;;;;;;;22.90;44.10;;;;;;5029534;28;19912;-76
2021/04/28 10:49:16;;;;;;;;;;;22.20;45.90;;;;;;5019030;28;20298;-75
2021/04/28 10:51:45;;;;;;;;;;;21.70;47.20;;;;;;5033821;28;19920;-76
2021/04/28 10:54:31;;;;;;;;;;;22.20;48.60;;;;;;5028840;28;20211;-75
2021/04/28 10:56:58;;;;;;;;;;;21.90;48.40;;;;;;5011031;28;19953;-76
2021/04/28 10:59:36;;;;;;;;;;;21.50;49.50;;;;;;5033630;28;19919;-76
2021/04/28 11:02:07;;;;;;;;;;;21.10;51.90;;;;;;5029995;28;19914;-77
2021/04/28 11:04:33;;;;;;;;;;;20.30;52.50;;;;;;5029290;28;19921;-76
2021/04/28 11:06:59;;;;;;;;;;;19.90;53.50;;;;;;5028209;28;20257;-75
2021/04/28 11:09:25;;;;;;;;;;;19.70;52.00;;;;;;5011991;28;19920;-75
2021/04/28 11:11:53;;;;;;;;;;;19.70;52.90;;;;;;5029370;28;19917;-75
2021/04/28 11:14:19;;;;;;;;;;;19.10;52.50;;;;;;5030062;28;19921;-76
2021/04/28 11:16:45;;;;;;;;;;;18.80;52.20;;;;;;5031308;28;19974;-76
2021/04/28 11:19:17;;;;;;;;;;;18.70;54.20;;;;;;5030534;28;19952;-75
2021/04/28 11:21:46;;;;;;;;;;;18.70;55.20;;;;;;5030883;28;19923;-75
2021/04/28 11:24:13;;;;;;;;;;;19.00;53.30;;;;;;5033051;28;20027;-76
2021/04/28 11:26:49;;;;;;;;;;;19.20;53.40;;;;;;5037649;28;20306;-74
2021/04/28 11:29:15;;;;;;;;;;;19.20;55.30;;;;;;5033976;28;19939;-75
2021/04/28 11:31:46;;;;;;;;;;;19.10;55.10;;;;;;5032894;28;19921;-76
2021/04/28 11:34:24;;;;;;;;;;;18.90;55.30;;;;;;5035916;28;19927;-75
2021/04/28 11:36:51;;;;;;;;;;;18.70;56.00;;;;;;5034045;28;19925;-74
2021/04/28 11:39:36;;;;;;;;;;;18.00;57.00;;;;;;5015052;28;19913;-74
2021/04/28 11:42:05;;;;;;;;;;;17.90;59.40;;;;;;5020554;28;19932;-75
2021/04/28 11:44:31;;;;;;;;;;;18.00;57.90;;;;;;5018845;28;20377;-75
2021/04/28 11:47:05;;;;;;;;;;;18.10;58.10;;;;;;5005550;28;20015;-75
2021/04/28 11:49:30;;;;;;;;;;;19.20;57.70;;;;;;5034279;28;20389;-74
2021/04/28 11:51:56;;;;;;;;;;;20.50;57.30;;;;;;5034278;28;19932;-76
2021/04/28 11:54:22;;;;;;;;;;;21.20;56.20;;;;;;5037527;28;19921;-76
2021/04/28 11:56:48;;;;;;;;;;;21.90;52.20;;;;;;5020106;28;19920;-77
2021/04/28 11:59:19;;;;;;;;;;;22.10;53.10;;;;;;5036923;28;20242;-76
2021/04/28 12:01:45;;;;;;;;;;;21.60;52.10;;;;;;5018231;28;19913;-77
2021/04/28 12:04:11;;;;;;;;;;;20.90;52.90;;;;;;5020207;28;19917;-75
2021/04/28 12:06:44;;;;;;;;;;;20.60;54.00;;;;;;5035453;28;19917;-76
2021/04/28 12:09:11;;;;;;;;;;;20.90;51.30;;;;;;5019976;28;20375;-75
2021/04/28 12:11:37;;;;;;;;;;;20.60;52.00;;;;;;5019227;28;20018;-77
2021/04/28 12:14:03;;;;;;;;;;;20.50;51.10;;;;;;5037428;28;19944;-77
2021/04/28 12:16:29;;;;;;;;;;;21.20;52.50;;;;;;5036180;28;19935;-77
2021/04/28 12:19:11;;;;;;;;;;;21.90;50.10;;;;;;5037328;28;19909;-75
2021/04/28 12:21:36;;;;;;;;;;;22.10;47.40;;;;;;5008404;28;20114;-77
2021/04/28 12:24:02;;;;;;;;;;;21.80;49.60;;;;;;5017521;28;20318;-76
2021/04/28 12:26:28;;;;;;;;;;;21.90;50.20;;;;;;5026704;28;20252;-76
2021/04/28 12:28:53;;;;;;;;;;;22.40;48.40;;;;;;5018956;28;19967;-76
2021/04/28 12:31:39;;;;;;;;;;;22.60;47.10;;;;;;5036560;28;19932;-77
2021/04/28 12:34:05;;;;;;;;;;;22.80;46.30;;;;;;5036179;28;19917;-77
2021/04/28 12:36:30;;;;;;;;;;;21.20;49.80;;;;;;5035334;28;19916;-75
2021/04/28 12:38:56;;;;;;;;;;;21.20;50.10;;;;;;5036420;28;19913;-76
2021/04/28 12:41:21;;;;;;;;;;;21.60;50.70;;;;;;5018865;28;19913;-76
2021/04/28 12:43:48;;;;;;;;;;;22.00;50.40;;;;;;5036731;28;19913;-76
2021/04/28 12:46:15;;;;;;;;;;;22.30;49.50;;;;;;5019143;28;20000;-75
2021/04/28 12:48:50;;;;;;;;;;;22.70;48.10;;;;;;5036029;28;19956;-76
2021/04/28 12:51:16;;;;;;;;;;;23.30;45.60;;;;;;5036323;28;20344;-76
2021/04/28 12:53:42;;;;;;;;;;;23.40;44.90;;;;;;5034484;28;19925;-77
2021/04/28 12:56:07;;;;;;;;;;;23.20;46.10;;;;;;5035886;28;19913;-77
2021/04/28 12:58:41;;;;;;;;;;;23.20;45.70;;;;;;5035966;28;19913;-75
2021/04/28 13:01:14;;;;;;;;;;;23.20;45.90;;;;;;5035616;28;20298;-75
2021/04/28 13:03:41;;;;;;;;;;;22.80;44.50;;;;;;5036003;28;19944;-75
2021/04/28 13:06:07;;;;;;;;;;;22.60;43.90;;;;;;5018419;28;19913;-76
2021/04/28 13:08:34;;;;;;;;;;;23.00;44.50;;;;;;5033545;28;19963;-76
2021/04/28 13:11:00;;;;;;;;;;;23.60;44.20;;;;;;5036315;28;19913;-77
2021/04/28 13:13:26;;;;;;;;;;;23.50;43.10;;;;;;5018918;28;19962;-76
2021/04/28 13:15:51;;;;;;;;;;;23.10;44.70;;;;;;5036512;28;19916;-77
2021/04/28 13:18:17;;;;;;;;;;;23.80;43.90;;;;;;5036351;28;19916;-76
2021/04/28 13:20:42;;;;;;;;;;;24.60;41.30;;;;;;5036322;28;20407;-76
2021/04/28 13:23:19;;;;;;;;;;;24.90;40.50;;;;;;5016599;28;19940;-76
2021/04/28 13:25:47;;;;;;;;;;;25.20;40.60;;;;;;5019096;28;20606;-76
2021/04/28 13:28:32;;;;;;;;;;;25.50;41.90;;;;;;5017846;28;19928;-77
2021/04/28 13:31:33;;;;;;;;;;;24.90;42.10;;;;;;5018329;28;19917;-77
2021/04/28 13:34:00;;;;;;;;;;;23.90;42.10;;;;;;4994743;28;20262;-76
2021/04/28 13:36:28;;;;;;;;;;;22.70;44.10;;;;;;4993491;28;20299;-75
2021/04/28 13:38:55;;;;;;;;;;;23.20;44.10;;;;;;4995554;28;19997;-75
2021/04/28 13:41:21;;;;;;;;;;;23.70;43.90;;;;;;5001475;28;19912;-75
2021/04/28 13:43:46;;;;;;;;;;;23.40;42.80;;;;;;5036014;28;19909;-75
2021/04/28 13:46:12;;;;;;;;;;;22.70;43.50;;;;;;5035797;28;20297;-75
2021/04/28 13:48:38;;;;;;;;;;;22.20;44.30;;;;;;5018463;28;19940;-76
2021/04/28 13:51:05;;;;;;;;;;;22.40;44.70;;;;;;5035912;28;19910;-76
2021/04/28 13:53:31;;;;;;;;;;;22.10;44.30;;;;;;5034166;28;19953;-76
2021/04/28 13:55:56;;;;;;;;;;;21.60;44.50;;;;;;5035583;28;19956;-79
2021/04/28 13:58:22;;;;;;;;;;;21.80;45.30;;;;;;5035674;28;19916;-75
2021/04/28 14:00:47;;;;;;;;;;;22.20;45.50;;;;;;5017077;28;19962;-76
2021/04/28 14:03:13;;;;;;;;;;;22.60;45.50;;;;;;5017083;28;19917;-77
2021/04/28 14:05:39;;;;;;;;;;;22.10;45.20;;;;;;5032825;28;20352;-76
2021/04/28 14:08:04;;;;;;;;;;;22.00;46.50;;;;;;5015561;28;20023;-76
2021/04/28 14:10:30;;;;;;;;;;;22.70;43.90;;;;;;5035486;28;20226;-76
2021/04/28 14:12:55;;;;;;;;;;;24.00;43.50;;;;;;5034792;28;19913;-76
2021/04/28 14:15:21;;;;;;;;;;;24.70;44.60;;;;;;5016226;28;20016;-76
2021/04/28 14:17:46;;;;;;;;;;;24.40;43.60;;;;;;5021519;28;19917;-77
2021/04/28 14:20:12;;;;;;;;;;;23.70;44.40;;;;;;5035554;28;19917;-76
2021/04/28 14:22:37;;;;;;;;;;;22.90;44.90;;;;;;5034903;28;20222;-75